Time;durP1;ratioP1;P1;durP2;ratioP2;P2;SDS_P1;SDS_P2;PMS_P1;PMS_P2;Temp;Humidity;BMP_temperature;BMP_pressure;BME280_temperature;BME280_humidity;BME280_pressure;Samples;Min_cycle;Max_cycle;Signal;HPM_P1;HPM_P2
2022/08/12 00:44:15;;;;;;;;;;;22.60;60.20;;;;;;5021896;28;19935;-68
2022/08/12 00:46:46;;;;;;;;;;;22.60;60.30;;;;;;5038345;28;20364;-68
2022/08/12 00:49:11;;;;;;;;;;;22.50;60.20;;;;;;5041638;28;19923;-68
2022/08/12 00:54:22;;;;;;;;;;;22.50;60.40;;;;;;5042282;28;20328;-68
2022/08/12 00:56:48;;;;;;;;;;;22.40;60.50;;;;;;5015504;28;19913;-68
2022/08/12 00:59:14;;;;;;;;;;;22.40;60.50;;;;;;5004430;28;19960;-68
2022/08/12 01:01:42;;;;;;;;;;;22.40;60.60;;;;;;5037592;28;19956;-68
2022/08/12 01:12:24;;;;;;;;;;;22.30;60.80;;;;;;5041443;28;20001;-68
2022/08/12 01:14:52;;;;;;;;;;;22.30;60.90;;;;;;5034603;28;20226;-68
2022/08/12 01:20:46;;;;;;;;;;;22.20;60.90;;;;;;5015287;28;19967;-68
2022/08/12 01:23:11;;;;;;;;;;;22.20;61.10;;;;;;5014001;28;19913;-68
2022/08/12 01:25:39;;;;;;;;;;;22.10;61.10;;;;;;5017063;28;19935;-68
2022/08/12 01:28:09;;;;;;;;;;;22.10;61.20;;;;;;5003350;28;19909;-69
2022/08/12 01:30:35;;;;;;;;;;;22.10;61.10;;;;;;5021925;28;19917;-68
2022/08/12 01:33:02;;;;;;;;;;;22.00;61.20;;;;;;5026704;28;19961;-68
2022/08/12 01:35:29;;;;;;;;;;;22.00;61.30;;;;;;5037568;28;20263;-68
2022/08/12 01:38:03;;;;;;;;;;;22.00;61.30;;;;;;5028263;28;19969;-68
2022/08/12 01:40:30;;;;;;;;;;;22.00;61.40;;;;;;5040982;28;19913;-69
2022/08/12 01:42:57;;;;;;;;;;;21.90;61.40;;;;;;5040952;28;19995;-68
2022/08/12 01:45:24;;;;;;;;;;;21.90;61.40;;;;;;5022590;28;19936;-68
2022/08/12 01:48:11;;;;;;;;;;;21.90;61.60;;;;;;5041184;28;20606;-68
2022/08/12 01:50:39;;;;;;;;;;;21.90;61.60;;;;;;5033395;28;19921;-68
2022/08/12 01:53:09;;;;;;;;;;;21.90;61.60;;;;;;5025567;28;19958;-68
2022/08/12 01:55:37;;;;;;;;;;;21.80;61.70;;;;;;5025655;28;19913;-69
2022/08/12 01:58:21;;;;;;;;;;;21.80;61.70;;;;;;5025496;28;19917;-68
2022/08/12 02:00:57;;;;;;;;;;;21.80;61.80;;;;;;5024920;28;19913;-68
2022/08/12 02:03:29;;;;;;;;;;;21.70;61.80;;;;;;5025020;28;19997;-68
2022/08/12 02:11:51;;;;;;;;;;;21.70;62.10;;;;;;5025073;28;19927;-68
2022/08/12 02:14:16;;;;;;;;;;;21.70;62.00;;;;;;5025330;28;20161;-68
2022/08/12 02:16:45;;;;;;;;;;;21.60;61.90;;;;;;5025092;28;20002;-68
2022/08/12 02:19:29;;;;;;;;;;;21.60;62.10;;;;;;5027672;28;19924;-68
2022/08/12 02:22:00;;;;;;;;;;;21.60;62.20;;;;;;5024029;28;19920;-68
2022/08/12 02:24:30;;;;;;;;;;;21.60;62.10;;;;;;5024906;28;20079;-68
2022/08/12 02:26:56;;;;;;;;;;;21.50;62.20;;;;;;5024947;28;20417;-68
2022/08/12 02:29:22;;;;;;;;;;;21.50;62.10;;;;;;5025166;28;19921;-68
2022/08/12 02:31:48;;;;;;;;;;;21.50;62.30;;;;;;5025316;28;19913;-68
2022/08/12 02:34:15;;;;;;;;;;;21.50;62.30;;;;;;5036473;28;19917;-69
2022/08/12 02:36:43;;;;;;;;;;;21.40;62.30;;;;;;5044280;28;19958;-69
2022/08/12 02:39:12;;;;;;;;;;;21.40;62.30;;;;;;5026234;28;20441;-68
2022/08/12 02:41:41;;;;;;;;;;;21.40;62.40;;;;;;5043530;28;19916;-69
2022/08/12 02:44:07;;;;;;;;;;;21.40;62.40;;;;;;5026140;28;19913;-68
2022/08/12 02:46:34;;;;;;;;;;;21.40;62.40;;;;;;5029713;28;19948;-68
2022/08/12 02:49:03;;;;;;;;;;;21.30;62.30;;;;;;5024861;28;20427;-68
2022/08/12 02:51:29;;;;;;;;;;;21.30;62.40;;;;;;5024726;28;19910;-68
2022/08/12 02:53:59;;;;;;;;;;;21.30;62.50;;;;;;5024645;28;19917;-68
2022/08/12 02:56:27;;;;;;;;;;;21.30;62.50;;;;;;5024026;28;20000;-68
2022/08/12 02:58:53;;;;;;;;;;;21.30;62.60;;;;;;5024793;28;20421;-68
2022/08/12 03:01:20;;;;;;;;;;;21.20;62.70;;;;;;5033306;28;20442;-68
2022/08/12 03:03:48;;;;;;;;;;;21.20;62.70;;;;;;5043389;28;19969;-68
2022/08/12 03:06:14;;;;;;;;;;;21.20;62.70;;;;;;5036721;28;19992;-68
2022/08/12 03:08:41;;;;;;;;;;;21.20;62.80;;;;;;5044634;28;19925;-68
2022/08/12 03:11:13;;;;;;;;;;;21.10;62.80;;;;;;5023588;28;20449;-69
2022/08/12 03:13:40;;;;;;;;;;;21.10;62.90;;;;;;5005894;28;20004;-68
2022/08/12 03:16:06;;;;;;;;;;;21.10;62.90;;;;;;5037288;28;19913;-69
2022/08/12 03:18:32;;;;;;;;;;;21.10;62.90;;;;;;5034719;28;19932;-68
2022/08/12 03:20:58;;;;;;;;;;;21.10;63.00;;;;;;5031542;28;20575;-68
2022/08/12 03:23:24;;;;;;;;;;;21.00;62.90;;;;;;5024021;28;20025;-69
2022/08/12 03:25:50;;;;;;;;;;;21.00;63.00;;;;;;5024056;28;20367;-68
2022/08/12 03:28:49;;;;;;;;;;;21.00;63.10;;;;;;5022985;28;19921;-68
2022/08/12 03:31:04;;;;;;;;;;;21.00;63.10;;;;;;5041395;28;19920;-68
2022/08/12 03:33:33;;;;;;;;;;;21.00;63.20;;;;;;5042406;28;20035;-68
2022/08/12 03:36:00;;;;;;;;;;;21.00;63.20;;;;;;5042070;28;19913;-68
2022/08/12 03:38:28;;;;;;;;;;;21.00;63.30;;;;;;5042558;28;19915;-68
2022/08/12 04:00:24;;;;;;;;;;;20.80;63.50;;;;;;5042538;28;19960;-68
2022/08/12 04:03:50;;;;;;;;;;;20.70;63.50;;;;;;5042605;28;19916;-68
2022/08/12 04:05:48;;;;;;;;;;;20.70;63.60;;;;;;5036476;28;20660;-68
2022/08/12 04:08:16;;;;;;;;;;;20.70;63.70;;;;;;5042199;28;19913;-68
2022/08/12 04:13:25;;;;;;;;;;;20.60;63.70;;;;;;5018381;28;19943;-69
2022/08/12 04:15:51;;;;;;;;;;;20.60;63.80;;;;;;5023297;28;20502;-68
2022/08/12 04:18:17;;;;;;;;;;;20.60;63.80;;;;;;5023331;28;19917;-68
2022/08/12 04:20:43;;;;;;;;;;;20.60;63.80;;;;;;5022877;28;19913;-69
2022/08/12 04:23:13;;;;;;;;;;;20.60;63.90;;;;;;5023313;28;20054;-68
2022/08/12 04:25:39;;;;;;;;;;;20.60;64.00;;;;;;5024278;28;19917;-68
2022/08/12 04:28:06;;;;;;;;;;;20.60;64.00;;;;;;5023858;28;19912;-68
2022/08/12 04:30:32;;;;;;;;;;;20.60;64.00;;;;;;5041293;28;19924;-68
2022/08/12 04:32:58;;;;;;;;;;;20.60;64.00;;;;;;5041829;28;19913;-68
2022/08/12 04:35:24;;;;;;;;;;;20.50;64.10;;;;;;5041825;28;19912;-68
2022/08/12 04:37:54;;;;;;;;;;;20.50;64.20;;;;;;5041971;28;20050;-68
2022/08/12 04:40:23;;;;;;;;;;;20.50;64.30;;;;;;5034081;28;20566;-68
2022/08/12 04:42:49;;;;;;;;;;;20.50;64.20;;;;;;5004009;28;19924;-68
2022/08/12 04:45:14;;;;;;;;;;;20.50;64.30;;;;;;5021895;28;19924;-68
2022/08/12 04:47:40;;;;;;;;;;;20.50;64.30;;;;;;5004461;28;19913;-69
2022/08/12 04:50:06;;;;;;;;;;;20.50;64.30;;;;;;5021656;28;19917;-68
2022/08/12 04:52:32;;;;;;;;;;;20.40;64.40;;;;;;5004614;28;19920;-68
2022/08/12 04:54:58;;;;;;;;;;;20.40;64.30;;;;;;5028937;28;19917;-68
2022/08/12 04:57:23;;;;;;;;;;;20.40;64.40;;;;;;5042056;28;19913;-69
2022/08/12 04:59:48;;;;;;;;;;;20.40;64.40;;;;;;5023640;28;19919;-68
2022/08/12 05:02:20;;;;;;;;;;;20.40;64.40;;;;;;5041776;28;20008;-68
2022/08/12 05:04:48;;;;;;;;;;;20.40;64.50;;;;;;5040434;28;19996;-69
2022/08/12 05:07:14;;;;;;;;;;;20.40;64.60;;;;;;5034809;28;19920;-68
2022/08/12 05:09:39;;;;;;;;;;;20.40;64.40;;;;;;5041339;28;20027;-69
2022/08/12 05:12:05;;;;;;;;;;;20.40;64.60;;;;;;5041571;28;19916;-68
2022/08/12 05:14:31;;;;;;;;;;;20.30;64.50;;;;;;5029258;28;20300;-68
2022/08/12 05:16:57;;;;;;;;;;;20.30;64.60;;;;;;5022246;28;20693;-68
2022/08/12 05:19:22;;;;;;;;;;;20.30;64.50;;;;;;5029323;28;19975;-68
2022/08/12 05:21:48;;;;;;;;;;;20.30;64.60;;;;;;5022137;28;19910;-69
2022/08/12 05:24:13;;;;;;;;;;;20.30;64.70;;;;;;5022522;28;19917;-68
2022/08/12 05:26:39;;;;;;;;;;;20.30;64.60;;;;;;5041917;28;19920;-69
2022/08/12 05:29:06;;;;;;;;;;;20.30;64.80;;;;;;5044584;28;19917;-68
2022/08/12 05:31:31;;;;;;;;;;;20.30;64.90;;;;;;5044606;28;19916;-68
2022/08/12 05:33:57;;;;;;;;;;;20.30;64.70;;;;;;5044442;28;20361;-68
2022/08/12 05:36:23;;;;;;;;;;;20.30;64.70;;;;;;5026566;28;19913;-69
2022/08/12 05:38:58;;;;;;;;;;;20.30;64.80;;;;;;5041523;28;19917;-69
2022/08/12 05:41:24;;;;;;;;;;;20.30;64.80;;;;;;5025524;28;19913;-68
2022/08/12 05:43:54;;;;;;;;;;;20.30;64.80;;;;;;5025305;28;19913;-68
2022/08/12 05:46:21;;;;;;;;;;;20.30;64.80;;;;;;5025356;28;19921;-68
2022/08/12 05:48:48;;;;;;;;;;;20.30;65.00;;;;;;5025131;28;19917;-68
2022/08/12 05:51:13;;;;;;;;;;;20.30;64.90;;;;;;5024865;28;19913;-68
2022/08/12 05:53:40;;;;;;;;;;;20.30;65.00;;;;;;5027602;28;19996;-68
2022/08/12 05:56:06;;;;;;;;;;;20.30;65.10;;;;;;5044091;28;19958;-68
2022/08/12 05:58:31;;;;;;;;;;;20.20;65.00;;;;;;5044059;28;20427;-68
2022/08/12 06:00:57;;;;;;;;;;;20.20;65.00;;;;;;5043882;28;19920;-68
2022/08/12 06:03:24;;;;;;;;;;;20.30;64.90;;;;;;5043918;28;19915;-68
2022/08/12 06:05:50;;;;;;;;;;;20.30;65.20;;;;;;5038592;28;19917;-68
2022/08/12 06:08:17;;;;;;;;;;;20.30;65.20;;;;;;5035002;28;19970;-69
2022/08/12 06:10:44;;;;;;;;;;;20.30;64.90;;;;;;5024560;28;19983;-69
2022/08/12 06:13:10;;;;;;;;;;;20.30;65.10;;;;;;5024988;28;19944;-68
2022/08/12 06:15:36;;;;;;;;;;;20.30;65.00;;;;;;5025183;28;19959;-68
2022/08/12 06:18:06;;;;;;;;;;;20.30;65.20;;;;;;5025176;28;19916;-68
2022/08/12 06:20:31;;;;;;;;;;;20.30;65.10;;;;;;5006497;28;19921;-68
2022/08/12 06:22:57;;;;;;;;;;;20.30;64.90;;;;;;5031063;28;19937;-68
2022/08/12 06:25:27;;;;;;;;;;;20.30;65.00;;;;;;5028539;28;20463;-68
2022/08/12 06:27:54;;;;;;;;;;;20.30;64.90;;;;;;5018868;28;19946;-68
2022/08/12 06:30:20;;;;;;;;;;;20.30;64.70;;;;;;5024329;28;19924;-68
2022/08/12 06:32:47;;;;;;;;;;;20.30;64.70;;;;;;5024717;28;19940;-68
2022/08/12 06:35:16;;;;;;;;;;;20.30;64.60;;;;;;5042211;28;19913;-69
2022/08/12 06:37:44;;;;;;;;;;;20.30;64.80;;;;;;5027196;28;19974;-68
2022/08/12 06:40:11;;;;;;;;;;;20.30;64.70;;;;;;5013139;28;19925;-68
2022/08/12 06:42:51;;;;;;;;;;;20.30;64.70;;;;;;5017751;28;19917;-68
2022/08/12 06:45:17;;;;;;;;;;;20.30;64.70;;;;;;5006545;28;19977;-68
2022/08/12 06:47:43;;;;;;;;;;;20.30;64.80;;;;;;5006368;28;20923;-68
2022/08/12 06:50:12;;;;;;;;;;;20.30;64.60;;;;;;5023732;28;20016;-68
2022/08/12 06:52:38;;;;;;;;;;;20.40;64.60;;;;;;5038077;28;20547;-68
2022/08/12 06:55:04;;;;;;;;;;;20.40;64.60;;;;;;5043422;28;19912;-68
2022/08/12 06:57:30;;;;;;;;;;;20.40;64.50;;;;;;5043355;28;19909;-68
2022/08/12 06:59:56;;;;;;;;;;;20.40;64.50;;;;;;5024535;28;19913;-68
2022/08/12 07:02:21;;;;;;;;;;;20.40;64.40;;;;;;5042351;28;19916;-68
2022/08/12 07:04:47;;;;;;;;;;;20.40;64.40;;;;;;5038063;28;19917;-68
2022/08/12 07:07:13;;;;;;;;;;;20.40;64.40;;;;;;5035360;28;20000;-68
2022/08/12 07:09:41;;;;;;;;;;;20.50;64.30;;;;;;5042586;28;19970;-68
2022/08/12 07:12:18;;;;;;;;;;;20.50;64.40;;;;;;5042635;28;19913;-68
2022/08/12 07:14:50;;;;;;;;;;;20.50;64.30;;;;;;5028683;28;19961;-68
2022/08/12 07:17:15;;;;;;;;;;;20.50;64.20;;;;;;5006372;28;19916;-68
2022/08/12 07:19:42;;;;;;;;;;;20.50;64.20;;;;;;5023599;28;19914;-68
2022/08/12 07:22:09;;;;;;;;;;;20.50;64.20;;;;;;5023450;28;20015;-68
2022/08/12 07:24:35;;;;;;;;;;;20.50;64.00;;;;;;5005814;28;19913;-68
2022/08/12 07:27:00;;;;;;;;;;;20.50;64.00;;;;;;5022970;28;19917;-68
2022/08/12 07:29:27;;;;;;;;;;;20.50;63.90;;;;;;5004313;28;20293;-68
2022/08/12 07:31:53;;;;;;;;;;;20.60;63.90;;;;;;5004817;28;19913;-68
2022/08/12 07:34:18;;;;;;;;;;;20.60;63.90;;;;;;5022521;28;20417;-68
2022/08/12 07:36:46;;;;;;;;;;;20.60;63.80;;;;;;5022391;28;19913;-68
2022/08/12 07:39:12;;;;;;;;;;;20.70;63.70;;;;;;5033893;28;19916;-68
2022/08/12 07:41:37;;;;;;;;;;;20.70;63.60;;;;;;5023386;28;19913;-68
2022/08/12 07:44:05;;;;;;;;;;;20.70;63.50;;;;;;5041860;28;19919;-68
2022/08/12 07:46:35;;;;;;;;;;;20.70;63.40;;;;;;5024476;28;19950;-68
2022/08/12 07:49:11;;;;;;;;;;;20.80;63.40;;;;;;5042085;28;20284;-68
2022/08/12 07:51:37;;;;;;;;;;;20.80;63.30;;;;;;5025391;28;20285;-68
2022/08/12 07:54:08;;;;;;;;;;;20.80;63.20;;;;;;5023294;28;19913;-68
2022/08/12 07:56:33;;;;;;;;;;;20.80;63.10;;;;;;5041991;28;19912;-68
2022/08/12 07:58:59;;;;;;;;;;;20.90;63.10;;;;;;5042359;28;19920;-68
2022/08/12 08:01:25;;;;;;;;;;;20.90;63.10;;;;;;5042263;28;19916;-68
2022/08/12 08:06:39;;;;;;;;;;;21.00;62.80;;;;;;5036675;28;20000;-69
2022/08/12 08:09:05;;;;;;;;;;;21.00;62.70;;;;;;5024244;28;19916;-68
2022/08/12 08:14:14;;;;;;;;;;;21.10;62.60;;;;;;5042221;28;19965;-68
2022/08/12 08:16:40;;;;;;;;;;;21.10;62.60;;;;;;5023839;28;19916;-68
2022/08/12 08:19:06;;;;;;;;;;;21.10;62.40;;;;;;5042143;28;19916;-68
2022/08/12 08:21:34;;;;;;;;;;;21.20;62.40;;;;;;5025964;28;19920;-68
2022/08/12 08:24:14;;;;;;;;;;;21.20;62.30;;;;;;5023229;28;20008;-68
2022/08/12 08:26:41;;;;;;;;;;;21.20;62.20;;;;;;5026617;28;20061;-68
2022/08/12 08:29:07;;;;;;;;;;;21.30;62.30;;;;;;5041863;28;19913;-68
2022/08/12 08:31:33;;;;;;;;;;;21.30;62.10;;;;;;5041951;28;19919;-68
2022/08/12 08:34:00;;;;;;;;;;;21.30;62.00;;;;;;5014039;28;20028;-68
2022/08/12 08:36:26;;;;;;;;;;;21.30;61.90;;;;;;5022892;28;19985;-68
2022/08/12 08:38:55;;;;;;;;;;;21.40;62.00;;;;;;5005055;28;20576;-68
2022/08/12 08:44:04;;;;;;;;;;;21.50;61.70;;;;;;5041348;28;20000;-68
2022/08/12 08:46:33;;;;;;;;;;;21.50;61.60;;;;;;5041268;28;20568;-68
2022/08/12 08:49:00;;;;;;;;;;;21.50;61.40;;;;;;5041066;28;19917;-68
2022/08/12 08:51:25;;;;;;;;;;;21.60;61.40;;;;;;5036216;28;19920;-68
2022/08/12 08:53:52;;;;;;;;;;;21.70;61.30;;;;;;5040082;28;19909;-68
2022/08/12 08:56:18;;;;;;;;;;;21.70;61.20;;;;;;5005713;28;19917;-68
2022/08/12 08:58:44;;;;;;;;;;;21.70;61.10;;;;;;5020809;28;20569;-68
2022/08/12 09:01:10;;;;;;;;;;;21.80;60.80;;;;;;5021370;28;19917;-68
2022/08/12 09:03:36;;;;;;;;;;;21.80;60.80;;;;;;5020922;28;20325;-68
2022/08/12 09:06:01;;;;;;;;;;;21.90;60.60;;;;;;5023511;28;19909;-68
2022/08/12 09:08:27;;;;;;;;;;;21.90;60.30;;;;;;5040199;28;19917;-68
2022/08/12 09:13:26;;;;;;;;;;;22.00;60.40;;;;;;5016461;28;19956;-68
2022/08/12 09:13:38;;;;;;;;;;;22.00;60.30;;;;;;5021740;28;19913;-68
2022/08/12 09:16:05;;;;;;;;;;;22.10;60.20;;;;;;5022319;28;19913;-68
2022/08/12 09:18:33;;;;;;;;;;;22.10;59.90;;;;;;5022620;28;20008;-68
2022/08/12 09:20:58;;;;;;;;;;;22.20;59.90;;;;;;5022297;28;20108;-68
2022/08/12 09:23:26;;;;;;;;;;;22.20;59.60;;;;;;5025910;28;20199;-68
2022/08/12 09:25:51;;;;;;;;;;;22.30;59.60;;;;;;5041466;28;19993;-68
2022/08/12 09:28:17;;;;;;;;;;;22.30;60.00;;;;;;5041281;28;19916;-68
2022/08/12 09:30:44;;;;;;;;;;;22.40;59.60;;;;;;5031720;28;19940;-68
2022/08/12 09:33:11;;;;;;;;;;;22.50;59.60;;;;;;5022558;28;19953;-68
2022/08/12 09:35:39;;;;;;;;;;;22.50;59.00;;;;;;5022434;28;19966;-68
2022/08/12 09:38:05;;;;;;;;;;;22.60;58.90;;;;;;5025146;28;19913;-68
2022/08/12 09:40:31;;;;;;;;;;;22.60;59.00;;;;;;5040831;28;20392;-69
2022/08/12 09:45:44;;;;;;;;;;;22.70;58.60;;;;;;5041418;28;20011;-68
2022/08/12 09:48:15;;;;;;;;;;;22.80;58.40;;;;;;5041159;28;20413;-68
2022/08/12 09:50:41;;;;;;;;;;;22.80;58.70;;;;;;5013377;28;20357;-68
2022/08/12 09:53:13;;;;;;;;;;;22.90;58.10;;;;;;5033057;28;19920;-68
2022/08/12 09:55:51;;;;;;;;;;;23.00;57.80;;;;;;5041100;28;19913;-68
2022/08/12 09:58:29;;;;;;;;;;;23.00;57.60;;;;;;5041096;28;20033;-68
2022/08/12 10:00:56;;;;;;;;;;;23.10;57.50;;;;;;5040753;28;19913;-68
2022/08/12 10:03:25;;;;;;;;;;;23.10;57.60;;;;;;5040660;28;20556;-68
2022/08/12 10:05:51;;;;;;;;;;;23.20;57.60;;;;;;5033458;28;19913;-68
2022/08/12 10:08:17;;;;;;;;;;;23.30;57.60;;;;;;5021174;28;19920;-68
2022/08/12 10:13:40;;;;;;;;;;;23.40;57.40;;;;;;5023902;28;20049;-68
2022/08/12 10:16:12;;;;;;;;;;;23.50;57.30;;;;;;5024477;28;19966;-68
2022/08/12 10:18:38;;;;;;;;;;;23.50;57.00;;;;;;5024261;28;19913;-68
2022/08/12 10:21:08;;;;;;;;;;;23.60;57.30;;;;;;5010669;28;19924;-68
2022/08/12 10:23:34;;;;;;;;;;;23.60;57.20;;;;;;5025290;28;19926;-68
2022/08/12 10:31:28;;;;;;;;;;;23.80;57.60;;;;;;5043148;28;19985;-68
2022/08/12 10:33:54;;;;;;;;;;;23.90;57.50;;;;;;5043322;28;19916;-68
2022/08/12 10:36:19;;;;;;;;;;;24.00;57.30;;;;;;5027318;28;19921;-68
2022/08/12 10:38:46;;;;;;;;;;;24.10;57.40;;;;;;5006065;28;20346;-68
2022/08/12 10:43:55;;;;;;;;;;;24.20;57.40;;;;;;5024426;28;19924;-68
2022/08/12 10:46:22;;;;;;;;;;;24.40;57.90;;;;;;5023897;28;19921;-68
2022/08/12 10:48:50;;;;;;;;;;;24.40;57.70;;;;;;5023466;28;20065;-68
2022/08/12 10:51:19;;;;;;;;;;;24.50;57.00;;;;;;5025426;28;19913;-68
2022/08/12 10:53:45;;;;;;;;;;;24.60;57.60;;;;;;5023913;28;19913;-68
2022/08/12 10:56:11;;;;;;;;;;;24.70;57.40;;;;;;5023822;28;19909;-68
2022/08/12 10:58:37;;;;;;;;;;;24.80;57.10;;;;;;5026147;28;19923;-68
2022/08/12 11:01:04;;;;;;;;;;;25.00;57.40;;;;;;5042292;28;20354;-68
2022/08/12 11:03:33;;;;;;;;;;;25.00;57.30;;;;;;5042419;28;19952;-68
2022/08/12 11:05:59;;;;;;;;;;;25.20;57.40;;;;;;5036880;28;20632;-68
2022/08/12 11:08:26;;;;;;;;;;;25.30;58.20;;;;;;5043047;28;19993;-68
2022/08/12 11:10:52;;;;;;;;;;;25.40;57.60;;;;;;5042638;28;20732;-68
2022/08/12 11:13:18;;;;;;;;;;;25.50;56.00;;;;;;5033194;28;19913;-68
2022/08/12 11:15:44;;;;;;;;;;;25.60;57.40;;;;;;5023161;28;20628;-67
2022/08/12 11:18:10;;;;;;;;;;;25.80;56.50;;;;;;5023614;28;19924;-67
2022/08/12 11:20:36;;;;;;;;;;;25.90;57.50;;;;;;5022384;28;19924;-67
2022/08/12 11:23:01;;;;;;;;;;;26.00;55.90;;;;;;5030233;28;19909;-67
2022/08/12 11:25:27;;;;;;;;;;;26.10;57.40;;;;;;5042462;28;19923;-67
2022/08/12 11:27:52;;;;;;;;;;;26.20;57.30;;;;;;5042109;28;19964;-67
2022/08/12 11:30:18;;;;;;;;;;;26.30;57.70;;;;;;5042122;28;19916;-67
2022/08/12 11:32:43;;;;;;;;;;;26.40;57.60;;;;;;5042436;28;20367;-67
2022/08/12 11:35:09;;;;;;;;;;;26.50;57.20;;;;;;5041882;28;20718;-67
2022/08/12 11:37:37;;;;;;;;;;;26.70;57.70;;;;;;5025824;28;19924;-67
2022/08/12 11:40:04;;;;;;;;;;;26.80;57.60;;;;;;5022976;28;19917;-67
2022/08/12 11:42:29;;;;;;;;;;;26.90;57.50;;;;;;5027390;28;20877;-67
2022/08/12 11:44:55;;;;;;;;;;;27.00;57.30;;;;;;5005159;28;19921;-67
2022/08/12 11:47:20;;;;;;;;;;;27.10;57.50;;;;;;5022345;28;19916;-67
2022/08/12 11:49:46;;;;;;;;;;;27.20;57.50;;;;;;5022279;28;20011;-67
2022/08/12 11:52:11;;;;;;;;;;;27.20;57.50;;;;;;5004855;28;19961;-67
2022/08/12 11:54:37;;;;;;;;;;;27.30;57.60;;;;;;5028219;28;19933;-67
2022/08/12 11:57:02;;;;;;;;;;;27.40;57.60;;;;;;5022234;28;19913;-67
2022/08/12 11:59:28;;;;;;;;;;;27.50;57.60;;;;;;5027756;28;19913;-67
2022/08/12 12:01:54;;;;;;;;;;;27.50;57.80;;;;;;5029401;28;20269;-67
2022/08/12 12:04:19;;;;;;;;;;;27.60;57.60;;;;;;5022277;28;20329;-67
2022/08/12 12:06:45;;;;;;;;;;;27.70;57.60;;;;;;5022454;28;20595;-67
2022/08/12 12:09:10;;;;;;;;;;;27.70;57.60;;;;;;5021621;28;19928;-67
2022/08/12 12:11:36;;;;;;;;;;;27.90;57.70;;;;;;5021839;28;19913;-67
2022/08/12 12:14:01;;;;;;;;;;;28.00;57.70;;;;;;5022171;28;20645;-67
2022/08/12 12:16:27;;;;;;;;;;;28.00;57.20;;;;;;5022237;28;19920;-67
2022/08/12 12:18:52;;;;;;;;;;;28.10;58.20;;;;;;5024107;28;19913;-67
2022/08/12 12:21:18;;;;;;;;;;;28.20;57.70;;;;;;5027070;28;19928;-67
2022/08/12 12:23:43;;;;;;;;;;;28.20;57.80;;;;;;5021530;28;20007;-67
2022/08/12 12:26:09;;;;;;;;;;;28.30;57.70;;;;;;5024085;28;19925;-67
2022/08/12 12:28:34;;;;;;;;;;;28.40;57.70;;;;;;5021022;28;19917;-67
2022/08/12 12:31:00;;;;;;;;;;;28.40;57.70;;;;;;5020640;28;19921;-67
2022/08/12 12:33:26;;;;;;;;;;;28.50;57.50;;;;;;5021459;28;20277;-67
2022/08/12 12:35:51;;;;;;;;;;;28.50;57.30;;;;;;5021496;28;19924;-67
2022/08/12 12:38:18;;;;;;;;;;;28.60;56.40;;;;;;5022008;28;19913;-66
2022/08/12 12:40:45;;;;;;;;;;;28.60;57.00;;;;;;5020866;28;19983;-67
2022/08/12 12:43:10;;;;;;;;;;;28.70;57.40;;;;;;5021209;28;19921;-67
2022/08/12 12:45:38;;;;;;;;;;;28.80;57.50;;;;;;5030655;28;20395;-67
2022/08/12 12:48:06;;;;;;;;;;;28.90;57.40;;;;;;5037934;28;19989;-67
2022/08/12 12:50:33;;;;;;;;;;;28.90;56.90;;;;;;5032190;28;19970;-67
2022/08/12 12:52:58;;;;;;;;;;;28.90;57.30;;;;;;5025490;28;19921;-67
2022/08/12 12:55:25;;;;;;;;;;;29.00;57.20;;;;;;5024516;28;19966;-67
2022/08/12 12:57:50;;;;;;;;;;;29.10;57.30;;;;;;5021324;28;19952;-66
2022/08/12 13:00:17;;;;;;;;;;;29.20;56.90;;;;;;5021407;28;19956;-67
2022/08/12 13:02:54;;;;;;;;;;;29.20;56.70;;;;;;5021152;28;20783;-67
2022/08/12 13:05:24;;;;;;;;;;;29.30;57.30;;;;;;5021244;28;20485;-67
2022/08/12 13:07:51;;;;;;;;;;;29.30;57.20;;;;;;5033857;28;19991;-67
2022/08/12 13:10:17;;;;;;;;;;;29.40;56.90;;;;;;5021244;28;19939;-67
2022/08/12 13:12:42;;;;;;;;;;;29.40;57.20;;;;;;5020885;28;19913;-67
2022/08/12 13:15:14;;;;;;;;;;;29.40;57.30;;;;;;5020444;28;20507;-67
2022/08/12 13:17:41;;;;;;;;;;;29.50;57.20;;;;;;5020640;28;20016;-67
2022/08/12 13:20:06;;;;;;;;;;;29.60;57.20;;;;;;5021918;28;19917;-67
2022/08/12 13:22:32;;;;;;;;;;;29.60;56.70;;;;;;5020305;28;19914;-67
2022/08/12 13:24:58;;;;;;;;;;;29.70;56.70;;;;;;5020831;28;19921;-67
2022/08/12 13:27:28;;;;;;;;;;;29.80;57.20;;;;;;5020961;28;20461;-67
2022/08/12 13:29:54;;;;;;;;;;;29.80;57.00;;;;;;5020295;28;19918;-67
2022/08/12 13:32:20;;;;;;;;;;;29.80;56.80;;;;;;5016423;28;20114;-67
2022/08/12 13:34:51;;;;;;;;;;;29.90;56.90;;;;;;5021196;28;19943;-67
2022/08/12 13:37:17;;;;;;;;;;;29.90;56.80;;;;;;5021085;28;19913;-67
2022/08/12 13:39:42;;;;;;;;;;;30.00;56.60;;;;;;5003062;28;19924;-67
2022/08/12 13:42:08;;;;;;;;;;;30.00;56.70;;;;;;5020720;28;20876;-67
2022/08/12 13:44:34;;;;;;;;;;;30.10;55.70;;;;;;5021275;28;19993;-67
2022/08/12 13:46:59;;;;;;;;;;;30.10;54.70;;;;;;5024142;28;20411;-67
2022/08/12 13:49:25;;;;;;;;;;;30.20;55.50;;;;;;5027049;28;20024;-67
2022/08/12 13:51:52;;;;;;;;;;;30.20;56.20;;;;;;5005693;28;19947;-67
2022/08/12 13:54:19;;;;;;;;;;;30.30;56.50;;;;;;5005435;28;20454;-67
2022/08/12 13:56:44;;;;;;;;;;;30.30;54.50;;;;;;5007637;28;19913;-67
2022/08/12 13:59:10;;;;;;;;;;;30.40;56.30;;;;;;5024375;28;20480;-67
2022/08/12 14:01:36;;;;;;;;;;;30.40;56.40;;;;;;5024786;28;20413;-67
2022/08/12 14:04:03;;;;;;;;;;;30.40;56.10;;;;;;5025426;28;19924;-67
2022/08/12 14:06:28;;;;;;;;;;;30.50;55.90;;;;;;5023406;28;19918;-65
2022/08/12 14:08:54;;;;;;;;;;;30.50;56.00;;;;;;5024173;28;19913;-64
2022/08/12 14:11:20;;;;;;;;;;;30.50;54.90;;;;;;5023633;28;19913;-64
2022/08/12 14:13:47;;;;;;;;;;;30.60;56.00;;;;;;5024452;28;19966;-64
2022/08/12 14:16:16;;;;;;;;;;;30.60;56.20;;;;;;5025151;28;20021;-64
2022/08/12 14:18:42;;;;;;;;;;;30.60;55.90;;;;;;5030752;28;19924;-64
2022/08/12 14:21:09;;;;;;;;;;;30.70;56.00;;;;;;5029943;28;20590;-64
2022/08/12 14:23:36;;;;;;;;;;;30.70;56.10;;;;;;5024394;28;19920;-64
2022/08/12 14:26:04;;;;;;;;;;;30.80;55.90;;;;;;5024302;28;19913;-64
2022/08/12 14:28:31;;;;;;;;;;;30.80;55.80;;;;;;5024214;28;19920;-64
2022/08/12 14:30:59;;;;;;;;;;;30.90;55.80;;;;;;5024160;28;19924;-64
2022/08/12 14:33:27;;;;;;;;;;;30.90;54.60;;;;;;5024311;28;19999;-64
2022/08/12 14:35:52;;;;;;;;;;;30.90;53.60;;;;;;5035730;28;19917;-66
2022/08/12 14:38:19;;;;;;;;;;;31.00;55.50;;;;;;5043299;28;19940;-66
2022/08/12 14:40:46;;;;;;;;;;;31.00;54.80;;;;;;5043209;28;19916;-66
2022/08/12 14:43:13;;;;;;;;;;;31.10;54.60;;;;;;5042948;28;19912;-66
2022/08/12 14:45:38;;;;;;;;;;;31.20;53.80;;;;;;5023061;28;19921;-66
2022/08/12 14:48:05;;;;;;;;;;;31.30;53.00;;;;;;5022871;28;19920;-66
2022/08/12 14:50:30;;;;;;;;;;;31.30;52.40;;;;;;5005816;28;19948;-66
2022/08/12 14:52:56;;;;;;;;;;;31.50;52.30;;;;;;5027004;28;19917;-66
2022/08/12 14:55:21;;;;;;;;;;;31.60;51.70;;;;;;5042915;28;19913;-66
2022/08/12 14:57:54;;;;;;;;;;;31.70;52.20;;;;;;5041794;28;19912;-66
2022/08/12 15:03:07;;;;;;;;;;;31.90;51.00;;;;;;5044052;28;19987;-66
2022/08/12 15:05:36;;;;;;;;;;;32.10;51.40;;;;;;5036713;28;20353;-66
2022/08/12 15:08:10;;;;;;;;;;;32.20;51.60;;;;;;5024416;28;19924;-66
2022/08/12 15:10:36;;;;;;;;;;;32.30;51.40;;;;;;5024887;28;19923;-66
2022/08/12 15:13:05;;;;;;;;;;;32.50;51.00;;;;;;5023884;28;19913;-66
2022/08/12 15:15:41;;;;;;;;;;;32.70;50.80;;;;;;5023881;28;19920;-66
2022/08/12 15:18:07;;;;;;;;;;;32.80;50.80;;;;;;5023800;28;20354;-66
2022/08/12 15:20:33;;;;;;;;;;;33.10;50.40;;;;;;5023481;28;19921;-66
2022/08/12 15:22:59;;;;;;;;;;;33.20;49.50;;;;;;5023929;28;19937;-66
2022/08/12 15:25:25;;;;;;;;;;;33.40;49.30;;;;;;5023556;28;20505;-66
2022/08/12 15:27:52;;;;;;;;;;;33.50;49.80;;;;;;5040685;28;19944;-66
2022/08/12 15:30:18;;;;;;;;;;;33.70;49.60;;;;;;5018589;28;20007;-66
2022/08/12 15:32:45;;;;;;;;;;;34.00;49.30;;;;;;5023900;28;19913;-66
2022/08/12 15:35:13;;;;;;;;;;;34.10;49.20;;;;;;5022042;28;19917;-66
2022/08/12 15:37:39;;;;;;;;;;;34.30;49.00;;;;;;5023192;28;19917;-67
2022/08/12 15:40:05;;;;;;;;;;;34.50;48.90;;;;;;5023118;28;20289;-66
2022/08/12 15:42:30;;;;;;;;;;;34.70;48.20;;;;;;5023429;28;19928;-66
2022/08/12 15:44:56;;;;;;;;;;;34.80;48.30;;;;;;5023252;28;19990;-67
2022/08/12 15:47:23;;;;;;;;;;;34.90;48.40;;;;;;5022978;28;19917;-66
2022/08/12 15:49:49;;;;;;;;;;;35.10;48.20;;;;;;5022589;28;20261;-66
2022/08/12 15:52:22;;;;;;;;;;;35.20;47.40;;;;;;5023067;28;19913;-66
2022/08/12 15:54:48;;;;;;;;;;;35.30;47.90;;;;;;5023088;28;19913;-67
2022/08/12 15:57:13;;;;;;;;;;;35.50;47.40;;;;;;5023201;28;19913;-67
2022/08/12 15:59:39;;;;;;;;;;;35.60;47.70;;;;;;5023558;28;20027;-67
2022/08/12 16:02:04;;;;;;;;;;;35.80;47.60;;;;;;5023064;28;19917;-67
2022/08/12 16:04:30;;;;;;;;;;;35.90;47.50;;;;;;5022739;28;19956;-67
2022/08/12 16:06:56;;;;;;;;;;;36.00;47.20;;;;;;5004979;28;19920;-67